createdAt,value
2023-04-19T00:02:08.965Z,3.90
2023-04-19T00:04:38.099Z,3.05
2023-04-19T00:07:04.810Z,4.07
2023-04-19T00:09:31.341Z,3.63
2023-04-19T00:11:57.938Z,3.05
2023-04-19T00:14:24.513Z,3.80
2023-04-19T00:16:51.154Z,3.92
2023-04-19T00:19:17.764Z,3.10
2023-04-19T00:21:44.409Z,3.20
2023-04-19T00:24:11.197Z,3.83
2023-04-19T00:26:37.811Z,3.38
2023-04-19T00:29:04.453Z,2.90
2023-04-19T00:31:31.158Z,3.13
2023-04-19T00:33:57.788Z,2.58
2023-04-19T00:36:24.602Z,3.03
2023-04-19T00:38:51.184Z,2.83
2023-04-19T00:41:17.889Z,3.63
2023-04-19T00:43:44.490Z,2.88
2023-04-19T00:46:11.341Z,3.67
2023-04-19T00:48:38.151Z,2.90
2023-04-19T00:51:05.118Z,3.00
2023-04-19T00:53:35.067Z,2.97
2023-04-19T00:56:04.338Z,2.58
2023-04-19T00:58:31.728Z,2.47
2023-04-19T01:00:58.501Z,2.53
2023-04-19T01:03:27.340Z,2.53
2023-04-19T01:05:54.253Z,3.35
2023-04-19T01:08:20.817Z,2.15
2023-04-19T01:10:47.407Z,2.90
2023-04-19T01:13:14.001Z,2.97
2023-04-19T01:15:40.658Z,2.47
2023-04-19T01:18:07.457Z,2.55
2023-04-19T01:20:34.135Z,2.85
2023-04-19T01:23:00.773Z,2.33
2023-04-19T01:25:27.479Z,2.90
2023-04-19T01:27:54.085Z,2.13
2023-04-19T01:30:20.649Z,2.58
2023-04-19T01:32:47.493Z,2.35
2023-04-19T01:35:14.152Z,2.40
2023-04-19T01:37:40.681Z,2.15
2023-04-19T01:40:08.235Z,3.22
2023-04-19T01:42:34.852Z,2.20
2023-04-19T01:45:01.617Z,2.60
2023-04-19T01:47:28.509Z,2.50
2023-04-19T01:49:55.247Z,2.60
2023-04-19T01:52:21.902Z,2.67
2023-04-19T01:54:48.513Z,3.08
2023-04-19T01:57:16.489Z,2.72
2023-04-19T01:59:43.232Z,2.30
2023-04-19T02:02:10.206Z,2.13
2023-04-19T02:04:37.617Z,2.80
2023-04-19T02:07:04.431Z,2.55
2023-04-19T02:09:31.220Z,2.78
2023-04-19T02:11:57.869Z,2.50
2023-04-19T02:14:24.707Z,2.22
2023-04-19T02:16:51.642Z,2.40
2023-04-19T02:19:18.356Z,2.30
2023-04-19T02:21:45.655Z,2.25
2023-04-19T02:24:12.295Z,2.47
2023-04-19T02:26:40.165Z,2.22
2023-04-19T02:29:07.225Z,2.35
2023-04-19T02:31:34.108Z,2.40
2023-04-19T02:34:00.834Z,2.65
2023-04-19T02:36:29.893Z,2.45
2023-04-19T02:38:56.719Z,2.05
2023-04-19T02:41:23.531Z,2.45
2023-04-19T02:43:50.253Z,2.42
2023-04-19T02:46:17.199Z,2.80
2023-04-19T02:48:43.883Z,2.15
2023-04-19T02:51:16.790Z,2.50
2023-04-19T02:53:43.641Z,2.13
2023-04-19T02:56:10.424Z,2.10
2023-04-19T02:58:37.261Z,2.17
2023-04-19T03:01:04.196Z,2.20
2023-04-19T03:03:31.150Z,1.65
2023-04-19T03:05:58.108Z,2.63
2023-04-19T03:08:24.802Z,1.80
2023-04-19T03:10:51.733Z,1.60
2023-04-19T03:13:18.524Z,2.10
2023-04-19T03:15:45.266Z,2.08
2023-04-19T03:18:12.140Z,2.40
2023-04-19T03:20:38.952Z,1.95
2023-04-19T03:23:05.608Z,2.47
2023-04-19T03:25:33.398Z,1.90
2023-04-19T03:28:00.160Z,2.00
2023-04-19T03:30:26.787Z,2.45
2023-04-19T03:32:53.745Z,2.10
2023-04-19T03:35:21.338Z,2.22
2023-04-19T03:37:48.131Z,2.03
2023-04-19T03:40:14.960Z,2.65
2023-04-19T03:42:41.616Z,2.30
2023-04-19T03:45:11.079Z,2.45
2023-04-19T03:47:37.913Z,1.73
2023-04-19T03:50:04.963Z,1.83
2023-04-19T03:52:31.772Z,1.63
2023-04-19T03:54:58.445Z,2.20
2023-04-19T03:57:25.153Z,1.95
2023-04-19T03:59:52.195Z,1.95
2023-04-19T04:02:19.142Z,1.75
2023-04-19T04:04:46.384Z,1.85
2023-04-19T04:07:13.460Z,1.90
2023-04-19T04:09:40.225Z,2.00
2023-04-19T04:12:06.951Z,1.95
2023-04-19T04:14:34.755Z,2.22
2023-04-19T04:17:01.375Z,1.70
2023-04-19T04:19:28.154Z,2.15
2023-04-19T04:21:54.713Z,1.80
2023-04-19T04:24:22.542Z,1.88
2023-04-19T04:26:50.048Z,1.73
2023-04-19T04:29:17.175Z,2.00
2023-04-19T04:31:44.204Z,2.00
2023-04-19T04:34:11.021Z,1.90
2023-04-19T04:36:37.850Z,2.00
2023-04-19T04:39:06.408Z,1.80
2023-04-19T04:41:33.031Z,1.88
2023-04-19T04:44:12.025Z,2.67
2023-04-19T04:46:39.424Z,1.85
2023-04-19T04:49:06.623Z,1.80
2023-04-19T04:51:34.016Z,2.00
2023-04-19T04:54:00.970Z,1.98
2023-04-19T04:56:27.692Z,1.98
2023-04-19T04:58:54.704Z,1.73
2023-04-19T05:01:22.965Z,1.50
2023-04-19T05:03:51.024Z,2.33
2023-04-19T05:06:17.764Z,1.90
2023-04-19T05:08:45.328Z,1.75
2023-04-19T05:11:11.998Z,1.77
2023-04-19T05:13:38.611Z,1.80
2023-04-19T05:16:06.244Z,1.75
2023-04-19T05:18:32.948Z,1.90
2023-04-19T05:20:59.660Z,1.77
2023-04-19T05:23:26.245Z,1.80
2023-04-19T05:25:52.931Z,1.80
2023-04-19T05:28:19.654Z,1.80
2023-04-19T05:30:46.413Z,1.67
2023-04-19T05:33:12.926Z,1.95
2023-04-19T05:35:39.536Z,1.67
2023-04-19T05:38:08.498Z,2.15
2023-04-19T05:40:37.756Z,1.73
2023-04-19T05:43:04.455Z,1.88
2023-04-19T05:45:31.276Z,2.05
2023-04-19T05:47:57.931Z,1.80
2023-04-19T05:50:24.647Z,1.45
2023-04-19T05:52:51.383Z,1.70
2023-04-19T05:55:18.134Z,1.50
2023-04-19T05:57:44.761Z,1.75
2023-04-19T06:00:11.735Z,1.90
2023-04-19T06:02:38.607Z,1.73
2023-04-19T06:05:09.936Z,1.80
2023-04-19T06:07:43.190Z,1.40
2023-04-19T06:10:17.216Z,1.60
2023-04-19T06:12:45.226Z,1.70
2023-04-19T06:15:12.417Z,1.40
2023-04-19T06:17:39.064Z,1.42
2023-04-19T06:20:09.980Z,1.10
2023-04-19T06:22:45.697Z,1.30
2023-04-19T06:25:12.870Z,1.10
2023-04-19T06:27:39.486Z,1.35
2023-04-19T06:32:58.106Z,1.20
2023-04-19T06:35:25.301Z,0.98
2023-04-19T06:37:52.232Z,1.13
2023-04-19T06:40:19.041Z,1.23
2023-04-19T06:42:45.797Z,1.00
2023-04-19T06:45:12.560Z,1.15
2023-04-19T06:47:39.186Z,1.20
2023-04-19T06:50:06.501Z,1.02
2023-04-19T06:52:35.480Z,1.10
2023-04-19T06:55:02.054Z,1.02
2023-04-19T06:57:28.853Z,0.98
2023-04-19T07:00:01.294Z,1.00
2023-04-19T07:02:30.346Z,0.93
2023-04-19T07:04:56.951Z,1.00
2023-04-19T07:07:25.685Z,0.95
2023-04-19T07:09:52.387Z,0.82
2023-04-19T07:12:18.962Z,0.70
2023-04-19T07:14:45.679Z,0.85
2023-04-19T07:17:13.754Z,0.98
2023-04-19T07:19:40.387Z,0.80
2023-04-19T07:22:06.941Z,0.70
2023-04-19T07:24:33.644Z,0.70
2023-04-19T07:27:00.237Z,0.63
2023-04-19T07:29:27.098Z,0.70
2023-04-19T07:31:55.302Z,0.55
2023-04-19T07:34:22.049Z,0.70
2023-04-19T07:36:48.628Z,0.60
2023-04-19T07:39:15.217Z,0.73
2023-04-19T07:41:41.829Z,0.93
2023-04-19T07:44:08.690Z,0.50
2023-04-19T07:46:35.569Z,0.55
2023-04-19T07:49:02.240Z,0.60
2023-04-19T07:51:29.919Z,0.65
2023-04-19T07:53:56.600Z,0.50
2023-04-19T07:56:23.374Z,0.50
2023-04-19T07:59:04.201Z,0.73
2023-04-19T08:01:35.723Z,0.80
2023-04-19T08:04:03.010Z,0.70
2023-04-19T08:06:30.750Z,0.43
2023-04-19T08:08:58.677Z,0.70
2023-04-19T08:11:25.500Z,0.47
2023-04-19T08:14:04.526Z,0.50
2023-04-19T08:19:07.975Z,0.52
2023-04-19T08:21:41.263Z,0.73
2023-04-19T08:24:10.269Z,0.80
2023-04-19T08:26:38.979Z,0.55
2023-04-19T08:29:05.568Z,0.63
2023-04-19T08:31:32.472Z,0.65
2023-04-19T08:34:00.363Z,0.60
2023-04-19T08:36:39.101Z,0.75
2023-04-19T08:39:12.541Z,0.60
2023-04-19T08:41:48.064Z,0.50
2023-04-19T08:44:32.639Z,0.60
2023-04-19T08:47:03.026Z,0.70
2023-04-19T08:49:31.779Z,0.70
2023-04-19T08:51:59.010Z,0.50
2023-04-19T08:54:27.890Z,0.73
2023-04-19T08:56:54.570Z,0.52
2023-04-19T08:59:23.099Z,0.60
2023-04-19T09:01:50.151Z,0.80
2023-04-19T09:04:35.847Z,0.70
2023-04-19T09:07:03.315Z,0.55
2023-04-19T09:12:00.476Z,0.77
2023-04-19T09:14:28.491Z,0.52
2023-04-19T09:17:13.406Z,0.50
2023-04-19T09:19:50.157Z,0.68
2023-04-19T09:22:18.966Z,0.70
2023-04-19T09:25:24.016Z,0.70
2023-04-19T09:27:34.579Z,0.93
2023-04-19T09:30:03.371Z,0.70
2023-04-19T09:32:45.384Z,0.77
2023-04-19T09:35:12.002Z,0.75
2023-04-19T09:38:01.827Z,0.70
2023-04-19T09:40:28.453Z,0.75
2023-04-19T09:43:07.333Z,0.60
2023-04-19T09:45:46.410Z,1.10
2023-04-19T09:48:13.836Z,0.90
2023-04-19T09:51:02.748Z,0.80
2023-04-19T09:53:36.359Z,0.85
2023-04-19T09:56:04.253Z,1.20
2023-04-19T09:58:46.146Z,1.27
2023-04-19T10:01:17.313Z,0.88
2023-04-19T10:03:50.403Z,1.00
2023-04-19T10:08:51.092Z,1.10
2023-04-19T10:11:22.435Z,1.23
2023-04-19T10:13:49.747Z,1.23
2023-04-19T10:16:20.022Z,1.02
2023-04-19T10:18:49.863Z,1.17
2023-04-19T10:21:17.150Z,1.27
2023-04-19T10:23:44.134Z,1.10
2023-04-19T10:26:13.141Z,1.02
2023-04-19T10:28:42.254Z,0.95
2023-04-19T10:31:12.905Z,1.20
2023-04-19T10:33:40.665Z,1.35
2023-04-19T10:36:13.915Z,1.08
2023-04-19T10:38:47.179Z,1.30
2023-04-19T10:41:17.430Z,1.42
2023-04-19T10:43:54.820Z,1.15
2023-04-19T10:46:21.460Z,1.25
2023-04-19T10:48:56.834Z,1.08
2023-04-19T10:51:27.878Z,1.23
2023-04-19T10:54:02.415Z,1.25
2023-04-19T10:56:35.253Z,1.27
2023-04-19T10:59:02.151Z,1.23
2023-04-19T11:01:45.064Z,1.10
2023-04-19T11:04:16.035Z,1.10
2023-04-19T11:06:52.305Z,1.10
2023-04-19T11:09:39.619Z,1.38
2023-04-19T11:12:11.458Z,1.25
2023-04-19T11:14:53.330Z,1.38
2023-04-19T11:17:28.267Z,1.42
2023-04-19T11:19:56.705Z,1.60
2023-04-19T11:22:38.203Z,1.35
2023-04-19T11:25:13.238Z,1.40
2023-04-19T11:27:42.712Z,1.63
2023-04-19T11:30:12.086Z,1.20
2023-04-19T11:32:45.763Z,1.23
2023-04-19T11:35:13.889Z,1.30
2023-04-19T11:37:40.528Z,1.40
2023-04-19T11:40:08.888Z,1.20
2023-04-19T11:42:36.101Z,1.25
2023-04-19T11:45:03.377Z,1.58
2023-04-19T11:47:30.723Z,1.55
2023-04-19T11:49:57.606Z,1.65
2023-04-19T11:52:26.031Z,1.27
2023-04-19T11:54:53.651Z,1.23
2023-04-19T11:57:31.189Z,1.50
2023-04-19T12:00:12.264Z,1.77
2023-04-19T12:02:43.853Z,1.20
2023-04-19T12:05:15.544Z,1.27
2023-04-19T12:08:03.209Z,1.30
2023-04-19T12:10:31.043Z,1.60
2023-04-19T12:12:58.021Z,1.40
2023-04-19T12:15:40.596Z,1.30
2023-04-19T12:18:07.172Z,1.40
2023-04-19T12:20:36.194Z,1.27
2023-04-19T12:23:03.763Z,1.38
2023-04-19T12:25:31.464Z,1.10
2023-04-19T12:27:58.911Z,1.00
2023-04-19T12:30:26.380Z,1.15
2023-04-19T12:32:55.539Z,1.15
2023-04-19T12:35:24.034Z,1.33
2023-04-19T12:37:50.828Z,1.10
2023-04-19T12:40:18.974Z,1.23
2023-04-19T12:42:45.549Z,0.90
2023-04-19T12:45:13.588Z,1.15
2023-04-19T12:47:41.040Z,0.88
2023-04-19T12:50:10.490Z,1.00
2023-04-19T12:52:39.058Z,0.88
2023-04-19T12:55:06.281Z,1.10
2023-04-19T12:57:33.093Z,1.20
2023-04-19T12:59:59.713Z,1.27
2023-04-19T13:02:26.433Z,0.93
2023-04-19T13:04:53.350Z,1.10
2023-04-19T13:07:20.080Z,1.10
2023-04-19T13:09:48.363Z,1.15
2023-04-19T13:12:15.171Z,1.10
2023-04-19T13:14:43.568Z,1.10
2023-04-19T13:17:10.184Z,1.20
2023-04-19T13:19:36.765Z,1.08
2023-04-19T13:22:05.271Z,1.30
2023-04-19T13:24:32.932Z,0.93
2023-04-19T13:26:59.584Z,1.40
2023-04-19T13:29:26.228Z,1.30
2023-04-19T13:31:52.785Z,1.15
2023-04-19T13:34:19.548Z,1.20
2023-04-19T13:36:46.144Z,1.23
2023-04-19T13:39:12.797Z,0.90
2023-04-19T13:41:39.421Z,1.42
2023-04-19T13:44:06.051Z,0.80
2023-04-19T13:46:34.215Z,1.20
2023-04-19T13:49:00.795Z,1.25
2023-04-19T13:51:31.217Z,1.25
2023-04-19T13:54:05.790Z,1.10
2023-04-19T13:56:32.916Z,1.20
2023-04-19T13:58:59.488Z,1.42
2023-04-19T14:01:28.791Z,1.20
2023-04-19T14:03:55.500Z,1.10
2023-04-19T14:06:22.171Z,1.00
2023-04-19T14:08:51.184Z,1.20
2023-04-19T14:11:17.982Z,1.10
2023-04-19T14:13:46.714Z,1.13
2023-04-19T14:16:13.317Z,1.23
2023-04-19T14:18:40.126Z,1.35
2023-04-19T14:21:08.983Z,1.42
2023-04-19T14:23:35.562Z,1.02
2023-04-19T14:26:02.164Z,1.13
2023-04-19T14:28:28.764Z,1.05
2023-04-19T14:30:55.385Z,1.13
2023-04-19T14:33:22.084Z,1.20
2023-04-19T14:35:49.496Z,1.20
2023-04-19T14:38:16.174Z,1.20
2023-04-19T14:40:42.855Z,1.10
2023-04-19T14:43:11.662Z,1.00
2023-04-19T14:45:38.307Z,1.30
2023-04-19T14:48:05.199Z,1.10
2023-04-19T14:50:31.894Z,1.48
2023-04-19T14:53:00.317Z,1.23
2023-04-19T14:55:27.790Z,0.90
2023-04-19T14:57:54.662Z,1.15
2023-04-19T15:00:21.628Z,1.13
2023-04-19T15:02:48.301Z,1.27
2023-04-19T15:05:17.967Z,0.98
2023-04-19T15:07:46.846Z,1.17
2023-04-19T15:10:13.493Z,1.40
2023-04-19T15:12:40.060Z,1.27
2023-04-19T15:15:07.469Z,1.00
2023-04-19T15:17:34.115Z,1.50
2023-04-19T15:20:00.763Z,1.30
2023-04-19T15:22:29.221Z,1.13
2023-04-19T15:24:56.143Z,1.00
2023-04-19T15:27:22.744Z,1.23
2023-04-19T15:29:50.801Z,1.30
2023-04-19T15:32:17.445Z,1.00
2023-04-19T15:34:44.068Z,1.00
2023-04-19T15:37:11.338Z,1.27
2023-04-19T15:39:37.969Z,1.25
2023-04-19T15:42:07.082Z,1.00
2023-04-19T15:44:33.604Z,1.30
2023-04-19T15:47:00.632Z,1.38
2023-04-19T15:49:27.402Z,1.27
2023-04-19T15:51:55.421Z,1.00
2023-04-19T15:54:24.924Z,1.05
2023-04-19T15:56:51.529Z,1.20
2023-04-19T15:59:20.124Z,1.27
2023-04-19T16:01:46.738Z,1.40
2023-04-19T16:04:13.593Z,1.70
2023-04-19T16:06:42.477Z,1.35
2023-04-19T16:09:09.119Z,1.20
2023-04-19T16:11:35.827Z,1.27
2023-04-19T16:14:02.484Z,1.25
2023-04-19T16:16:33.227Z,1.02
2023-04-19T16:19:00.014Z,1.50
2023-04-19T16:21:28.498Z,1.25
2023-04-19T16:23:55.922Z,1.10
2023-04-19T16:26:23.000Z,1.15
2023-04-19T16:28:50.711Z,1.35
2023-04-19T16:31:19.203Z,1.55
2023-04-19T16:33:45.937Z,1.17
2023-04-19T16:36:12.485Z,1.15
2023-04-19T16:38:39.043Z,1.40
2023-04-19T16:41:05.861Z,1.10
2023-04-19T16:43:32.792Z,1.23
2023-04-19T16:46:01.355Z,1.13
2023-04-19T16:48:28.141Z,1.52
2023-04-19T16:50:55.739Z,1.10
2023-04-19T16:53:25.324Z,1.00
2023-04-19T16:55:52.128Z,1.00
2023-04-19T16:58:19.595Z,1.42
2023-04-19T17:00:48.703Z,1.25
2023-04-19T17:03:15.783Z,1.20
2023-04-19T17:05:42.508Z,1.10
2023-04-19T17:08:11.162Z,1.05
2023-04-19T17:10:38.143Z,1.10
2023-04-19T17:13:05.275Z,1.33
2023-04-19T17:15:32.018Z,1.20
2023-04-19T17:17:58.711Z,1.27
2023-04-19T17:20:25.610Z,1.30
2023-04-19T17:22:54.210Z,1.00
2023-04-19T17:25:24.319Z,1.25
2023-04-19T17:27:51.135Z,1.13
2023-04-19T17:30:19.039Z,2.28
2023-04-19T17:32:48.356Z,1.33
2023-04-19T17:35:15.501Z,2.00
2023-04-19T17:37:45.574Z,1.05
2023-04-19T17:40:12.458Z,1.35
2023-04-19T17:42:39.174Z,1.20
2023-04-19T17:45:10.822Z,1.25
2023-04-19T17:47:41.142Z,2.08
2023-04-19T17:50:10.171Z,1.40
2023-04-19T17:52:36.758Z,1.38
2023-04-19T17:55:04.620Z,1.02
2023-04-19T17:57:33.787Z,1.40
2023-04-19T18:00:05.893Z,1.33
2023-04-19T18:02:38.296Z,1.25
2023-04-19T18:05:07.448Z,1.40
2023-04-19T18:07:36.289Z,1.20
2023-04-19T18:10:03.964Z,1.35
2023-04-19T18:12:30.941Z,0.90
2023-04-19T18:14:57.491Z,1.30
2023-04-19T18:17:24.339Z,1.20
2023-04-19T18:19:53.952Z,1.00
2023-04-19T18:22:20.605Z,1.30
2023-04-19T18:24:47.362Z,1.58
2023-04-19T18:27:14.272Z,1.20
2023-04-19T18:29:40.924Z,1.20
2023-04-19T18:32:11.912Z,1.17
2023-04-19T18:34:38.563Z,1.60
2023-04-19T18:37:14.819Z,1.20
2023-04-19T18:39:45.610Z,1.73
2023-04-19T18:42:16.928Z,1.10
2023-04-19T18:44:53.822Z,1.50
2023-04-19T18:47:21.831Z,1.20
2023-04-19T18:50:02.884Z,1.23
2023-04-19T18:52:31.762Z,1.38
2023-04-19T18:54:58.811Z,1.52
2023-04-19T18:57:27.640Z,1.42
2023-04-19T18:59:56.913Z,1.55
2023-04-19T19:02:27.046Z,1.30
2023-04-19T19:04:58.529Z,1.20
2023-04-19T19:10:01.762Z,1.00
2023-04-19T19:12:30.729Z,1.10
2023-04-19T19:14:57.264Z,1.40
2023-04-19T19:17:27.921Z,1.30
2023-04-19T19:19:55.005Z,1.42
2023-04-19T19:22:28.199Z,1.02
2023-04-19T19:24:56.338Z,1.20
2023-04-19T19:27:23.334Z,1.48
2023-04-19T19:29:50.174Z,1.23
2023-04-19T19:32:16.769Z,1.23
2023-04-19T19:34:54.957Z,1.10
2023-04-19T19:37:26.627Z,1.10
2023-04-19T19:39:56.078Z,1.40
2023-04-19T19:42:25.467Z,1.10
2023-04-19T19:44:55.534Z,1.20
2023-04-19T19:47:27.248Z,1.42
2023-04-19T19:50:41.061Z,1.08
2023-04-19T19:52:41.747Z,1.33
2023-04-19T19:55:12.402Z,1.05
2023-04-19T20:03:00.863Z,1.45
2023-04-19T20:05:30.837Z,1.55
2023-04-19T20:08:13.638Z,1.52
2023-04-19T20:10:42.578Z,1.52
2023-04-19T20:13:09.251Z,1.42
2023-04-19T20:15:37.117Z,1.10
2023-04-19T20:18:04.911Z,1.27
2023-04-19T20:20:35.864Z,1.50
2023-04-19T20:23:02.761Z,1.52
2023-04-19T20:25:32.539Z,1.40
2023-04-19T20:28:00.269Z,1.45
2023-04-19T20:30:29.293Z,1.20
2023-04-19T20:32:56.163Z,1.60
2023-04-19T20:35:23.175Z,1.35
2023-04-19T20:37:50.795Z,1.70
2023-04-19T20:40:17.650Z,2.10
2023-04-19T20:42:44.818Z,1.30
2023-04-19T20:45:12.939Z,1.50
2023-04-19T20:47:42.238Z,1.40
2023-04-19T20:50:10.049Z,1.55
2023-04-19T20:52:36.678Z,1.48
2023-04-19T20:55:03.824Z,1.75
2023-04-19T20:57:30.793Z,1.67
2023-04-19T20:59:57.486Z,2.58
2023-04-19T21:02:24.176Z,2.25
2023-04-19T21:04:51.327Z,2.13
2023-04-19T21:07:17.970Z,1.90
2023-04-19T21:09:44.583Z,1.77
2023-04-19T21:12:11.462Z,2.05
2023-04-19T21:14:38.127Z,1.80
2023-04-19T21:17:04.764Z,1.77
2023-04-19T21:19:31.374Z,1.77
2023-04-19T21:21:58.465Z,1.80
2023-04-19T21:24:25.397Z,1.90
2023-04-19T21:26:51.943Z,1.45
2023-04-19T21:29:18.801Z,2.67
2023-04-19T21:31:45.749Z,1.90
2023-04-19T21:34:12.354Z,1.85
2023-04-19T21:36:39.250Z,1.65
2023-04-19T21:39:05.983Z,1.35
2023-04-19T21:41:32.612Z,1.58
2023-04-19T21:43:59.205Z,1.30
2023-04-19T21:46:25.883Z,1.30
2023-04-19T21:48:55.025Z,1.60
2023-04-19T21:51:22.423Z,1.52
2023-04-19T21:53:48.976Z,1.50
2023-04-19T21:56:15.525Z,1.63
2023-04-19T21:58:42.131Z,1.55
2023-04-19T22:01:09.974Z,1.60
2023-04-19T22:03:37.418Z,1.50
2023-04-19T22:06:04.707Z,1.55
2023-04-19T22:08:32.958Z,1.50
2023-04-19T22:11:00.377Z,1.40
2023-04-19T22:13:28.268Z,1.15
2023-04-19T22:15:56.942Z,1.50
2023-04-19T22:18:23.845Z,1.25
2023-04-19T22:20:51.879Z,1.35
2023-04-19T22:23:18.515Z,1.10
2023-04-19T22:25:45.317Z,1.52
2023-04-19T22:28:11.926Z,1.25
2023-04-19T22:30:38.558Z,1.00
2023-04-19T22:33:05.331Z,1.20
2023-04-19T22:35:31.935Z,1.05
2023-04-19T22:37:58.546Z,1.10
2023-04-19T22:40:25.306Z,1.30
2023-04-19T22:42:51.926Z,1.08
2023-04-19T22:45:18.539Z,1.10
2023-04-19T22:47:45.360Z,1.10
2023-04-19T22:50:12.010Z,1.20
2023-04-19T22:52:38.658Z,1.23
2023-04-19T22:55:06.865Z,1.00
2023-04-19T22:57:33.577Z,1.10
2023-04-19T23:00:00.387Z,0.90
2023-04-19T23:02:27.069Z,0.95
2023-04-19T23:04:54.374Z,1.05
2023-04-19T23:07:21.842Z,1.23
2023-04-19T23:09:48.468Z,1.05
2023-04-19T23:12:15.654Z,1.17
2023-04-19T23:14:42.292Z,1.08
2023-04-19T23:17:08.867Z,1.17
2023-04-19T23:19:37.491Z,1.20
2023-04-19T23:22:04.122Z,1.00
2023-04-19T23:24:30.677Z,1.10
2023-04-19T23:26:57.409Z,1.13
2023-04-19T23:29:23.946Z,1.35
2023-04-19T23:31:50.628Z,1.10
2023-04-19T23:34:17.510Z,0.98
2023-04-19T23:36:44.178Z,0.88
2023-04-19T23:39:10.763Z,1.20
2023-04-19T23:41:37.383Z,1.10
2023-04-19T23:44:04.013Z,1.40
2023-04-19T23:46:30.843Z,1.63
2023-04-19T23:48:57.450Z,1.17
2023-04-19T23:51:24.092Z,1.10
2023-04-19T23:53:50.729Z,1.25
2023-04-19T23:56:17.326Z,0.93
2023-04-19T23:58:43.907Z,1.33
